createdAt,value
2019-04-10T00:01:29.950Z,14.77
2019-04-10T00:03:58.849Z,15.37
2019-04-10T00:06:27.904Z,15.53
2019-04-10T00:08:56.840Z,24.23
2019-04-10T00:11:25.561Z,18.03
2019-04-10T00:13:55.341Z,20.50
2019-04-10T00:16:24.474Z,17.93
2019-04-10T00:18:53.986Z,18.20
2019-04-10T00:21:22.986Z,21.40
2019-04-10T00:23:51.794Z,18.67
2019-04-10T00:26:21.564Z,18.03
2019-04-10T00:28:50.557Z,18.83
2019-04-10T00:31:19.954Z,16.20
2019-04-10T00:33:49.295Z,16.77
2019-04-10T00:36:18.710Z,19.70
2019-04-10T00:38:48.310Z,17.00
2019-04-10T00:41:17.110Z,20.47
2019-04-10T00:43:46.797Z,15.07
2019-04-10T00:46:15.751Z,19.77
2019-04-10T00:48:44.562Z,19.23
2019-04-10T00:51:13.368Z,19.27
2019-04-10T00:53:42.104Z,18.03
2019-04-10T00:56:10.815Z,19.77
2019-04-10T00:58:39.615Z,14.87
2019-04-10T01:01:08.347Z,17.97
2019-04-10T01:03:38.130Z,17.83
2019-04-10T01:06:07.988Z,16.97
2019-04-10T01:08:37.058Z,14.90
2019-04-10T01:11:06.588Z,21.17
2019-04-10T01:13:35.568Z,19.63
2019-04-10T01:16:05.229Z,18.70
2019-04-10T01:18:35.128Z,18.07
2019-04-10T01:21:04.144Z,15.60
2019-04-10T01:23:33.089Z,15.27
2019-04-10T01:26:03.009Z,19.50
2019-04-10T01:28:31.783Z,14.37
2019-04-10T01:31:00.608Z,18.70
2019-04-10T01:33:30.342Z,17.90
2019-04-10T01:35:59.142Z,14.67
2019-04-10T01:38:27.843Z,21.93
2019-04-10T01:40:56.585Z,15.00
2019-04-10T01:43:25.373Z,17.33
2019-04-10T01:45:54.191Z,14.53
2019-04-10T01:48:23.832Z,16.30
2019-04-10T01:50:52.870Z,15.70
2019-04-10T01:53:21.837Z,15.07
2019-04-10T01:55:51.376Z,16.70
2019-04-10T01:58:21.035Z,16.67
2019-04-10T02:00:50.667Z,16.73
2019-04-10T02:03:20.166Z,14.23
2019-04-10T02:05:49.194Z,15.57
2019-04-10T02:08:18.984Z,16.00
2019-04-10T02:10:48.185Z,14.63
2019-04-10T02:13:17.176Z,14.83
2019-04-10T02:15:46.084Z,13.97
2019-04-10T02:18:14.923Z,13.67
2019-04-10T02:20:43.720Z,13.13
2019-04-10T02:23:12.430Z,16.27
2019-04-10T02:25:41.192Z,16.17
2019-04-10T02:28:10.988Z,17.17
2019-04-10T02:30:41.903Z,17.10
2019-04-10T02:33:10.735Z,18.93
2019-04-10T02:35:40.006Z,19.30
2019-04-10T02:38:26.077Z,16.47
2019-04-10T02:40:39.323Z,15.90
2019-04-10T02:43:09.858Z,15.47
2019-04-10T02:45:39.876Z,16.03
2019-04-10T02:48:10.049Z,17.83
2019-04-10T02:50:40.772Z,18.77
2019-04-10T02:53:10.946Z,19.97
2019-04-10T02:55:40.830Z,17.63
2019-04-10T02:58:09.852Z,15.13
2019-04-10T03:00:38.622Z,14.80
2019-04-10T03:03:07.497Z,18.00
2019-04-10T03:05:36.434Z,14.23
2019-04-10T03:08:06.858Z,17.53
2019-04-10T03:10:43.342Z,16.50
2019-04-10T03:13:06.315Z,15.77
2019-04-10T03:15:35.939Z,17.57
2019-04-10T03:18:04.864Z,17.40
2019-04-10T03:20:34.235Z,20.43
2019-04-10T03:23:03.194Z,13.33
2019-04-10T03:25:32.789Z,13.30
2019-04-10T03:28:02.851Z,15.63
2019-04-10T03:30:32.576Z,18.10
2019-04-10T03:33:05.925Z,13.10
2019-04-10T03:35:32.610Z,15.57
2019-04-10T03:38:01.621Z,12.30
2019-04-10T03:40:31.369Z,14.63
2019-04-10T03:43:00.204Z,19.67
2019-04-10T03:45:29.260Z,13.93
2019-04-10T03:47:58.098Z,14.37
2019-04-10T03:50:27.817Z,18.40
2019-04-10T03:52:56.643Z,15.43
2019-04-10T03:55:25.438Z,14.27
2019-04-10T03:57:55.235Z,16.40
2019-04-10T04:00:24.044Z,16.10
2019-04-10T04:02:53.705Z,16.57
2019-04-10T04:05:22.778Z,17.30
2019-04-10T04:07:51.688Z,20.70
2019-04-10T04:10:20.554Z,16.53
2019-04-10T04:12:49.438Z,18.23
2019-04-10T04:15:18.209Z,14.20
2019-04-10T04:17:46.965Z,13.50
2019-04-10T04:20:16.743Z,17.63
2019-04-10T04:22:46.138Z,13.77
2019-04-10T04:25:15.248Z,16.07
2019-04-10T04:27:44.240Z,17.47
2019-04-10T04:30:13.220Z,17.03
2019-04-10T04:32:42.127Z,19.37
2019-04-10T04:35:11.232Z,18.73
2019-04-10T04:37:40.154Z,11.27
2019-04-10T04:40:11.135Z,14.67
2019-04-10T04:42:40.700Z,16.03
2019-04-10T04:45:10.765Z,19.17
2019-04-10T04:47:39.678Z,18.40
2019-04-10T04:50:09.680Z,12.70
2019-04-10T04:52:39.116Z,17.27
2019-04-10T04:55:08.126Z,14.40
2019-04-10T04:57:39.137Z,16.50
2019-04-10T05:00:07.829Z,18.87
2019-04-10T05:02:37.203Z,15.03
2019-04-10T05:05:06.607Z,16.63
2019-04-10T05:07:35.985Z,19.47
2019-04-10T05:10:07.114Z,12.97
2019-04-10T05:12:36.081Z,17.17
2019-04-10T05:15:06.572Z,15.37
2019-04-10T05:17:35.519Z,16.20
2019-04-10T05:20:05.261Z,13.67
2019-04-10T05:22:34.468Z,16.67
2019-04-10T05:25:04.765Z,12.83
2019-04-10T05:27:33.683Z,15.43
2019-04-10T05:30:04.071Z,15.27
2019-04-10T05:32:33.054Z,19.30
2019-04-10T05:35:04.316Z,15.30
2019-04-10T05:37:32.291Z,12.27
2019-04-10T05:40:01.511Z,17.93
2019-04-10T05:42:31.033Z,16.97
2019-04-10T05:45:00.694Z,13.90
2019-04-10T05:47:30.287Z,16.57
2019-04-10T05:49:59.801Z,17.47
2019-04-10T05:52:28.914Z,13.77
2019-04-10T05:54:57.853Z,11.40
2019-04-10T05:57:26.773Z,15.43
2019-04-10T05:59:56.358Z,11.80
2019-04-10T06:02:25.253Z,12.07
2019-04-10T06:04:54.182Z,12.97
2019-04-10T06:07:23.167Z,16.17
2019-04-10T06:09:58.369Z,15.77
2019-04-10T06:12:22.416Z,27.63
2019-04-10T06:14:51.249Z,15.20
2019-04-10T06:17:22.561Z,20.70
2019-04-10T06:19:51.484Z,10.83
2019-04-10T06:22:20.772Z,10.63
2019-04-10T06:24:49.739Z,13.37
2019-04-10T06:27:18.558Z,14.60
2019-04-10T06:29:47.681Z,15.50
2019-04-10T06:32:17.051Z,16.10
2019-04-10T06:34:46.142Z,19.07
2019-04-10T06:37:15.704Z,18.70
2019-04-10T06:39:46.001Z,23.03
2019-04-10T06:42:16.236Z,15.27
2019-04-10T06:44:46.064Z,14.00
2019-04-10T06:47:14.952Z,17.13
2019-04-10T06:49:43.709Z,14.77
2019-04-10T06:52:12.426Z,11.30
2019-04-10T06:54:41.227Z,10.37
2019-04-10T06:57:10.459Z,11.73
2019-04-10T06:59:39.891Z,15.17
2019-04-10T07:02:16.619Z,17.43
2019-04-10T07:04:45.960Z,22.37
2019-04-10T07:07:12.921Z,10.13
2019-04-10T07:09:41.913Z,11.63
2019-04-10T07:12:10.922Z,15.40
2019-04-10T07:14:43.998Z,13.73
2019-04-10T07:17:10.633Z,12.77
2019-04-10T07:19:43.636Z,11.80
2019-04-10T07:22:14.012Z,14.13
2019-04-10T07:24:42.624Z,13.50
2019-04-10T07:27:11.958Z,19.70
2019-04-10T07:29:40.789Z,15.20
2019-04-10T07:32:10.888Z,16.33
2019-04-10T07:34:40.360Z,11.37
2019-04-10T07:37:11.857Z,13.80
2019-04-10T07:39:39.711Z,11.57
2019-04-10T07:42:09.553Z,12.63
2019-04-10T07:44:38.411Z,16.47
2019-04-10T07:47:07.170Z,12.30
2019-04-10T07:49:38.116Z,13.60
2019-04-10T07:52:06.470Z,16.37
2019-04-10T07:54:35.355Z,16.57
2019-04-10T07:57:04.342Z,17.10
2019-04-10T07:59:33.414Z,18.87
2019-04-10T08:02:02.553Z,15.53
2019-04-10T08:04:31.646Z,12.93
2019-04-10T08:07:00.984Z,14.80
2019-04-10T08:09:29.872Z,13.87
2019-04-10T08:12:01.106Z,18.50
2019-04-10T08:14:29.433Z,16.33
2019-04-10T08:16:59.455Z,19.80
2019-04-10T08:19:29.450Z,12.57
2019-04-10T08:21:58.381Z,16.97
2019-04-10T08:24:28.035Z,14.23
2019-04-10T08:26:57.081Z,15.27
2019-04-10T08:29:25.996Z,14.10
2019-04-10T08:31:55.923Z,12.37
2019-04-10T08:34:25.979Z,17.30
2019-04-10T08:36:55.565Z,12.97
2019-04-10T08:39:35.209Z,12.20
2019-04-10T08:41:56.025Z,13.13
2019-04-10T08:44:24.791Z,14.67
2019-04-10T08:46:54.647Z,16.20
2019-04-10T08:49:23.447Z,14.33
2019-04-10T08:51:52.421Z,12.93
2019-04-10T08:54:21.240Z,17.67
2019-04-10T08:56:52.964Z,16.13
2019-04-10T08:59:21.707Z,15.63
2019-04-10T09:01:50.442Z,17.53
2019-04-10T09:04:19.216Z,14.40
2019-04-10T09:06:47.990Z,15.63
2019-04-10T09:09:17.334Z,16.40
2019-04-10T09:11:46.176Z,17.37
2019-04-10T09:14:14.994Z,19.47
2019-04-10T09:16:44.753Z,18.50
2019-04-10T09:19:13.928Z,18.37
2019-04-10T09:21:43.661Z,17.63
2019-04-10T09:24:15.191Z,23.97
2019-04-10T09:26:42.943Z,22.77
2019-04-10T09:29:11.919Z,17.10
2019-04-10T09:31:41.744Z,16.40
2019-04-10T09:34:11.687Z,21.03
2019-04-10T09:36:41.653Z,13.67
2019-04-10T09:39:11.600Z,17.70
2019-04-10T09:41:40.412Z,18.10
2019-04-10T09:44:10.187Z,16.83
2019-04-10T09:46:39.125Z,13.60
2019-04-10T09:49:08.864Z,13.50
2019-04-10T09:51:38.294Z,15.93
2019-04-10T09:54:07.857Z,20.37
2019-04-10T09:56:36.823Z,19.07
2019-04-10T09:59:05.706Z,14.70
2019-04-10T10:01:34.561Z,16.33
2019-04-10T10:04:03.357Z,16.20
2019-04-10T10:06:36.260Z,17.03
2019-04-10T10:09:04.342Z,17.63
2019-04-10T10:11:34.083Z,14.87
2019-04-10T10:14:04.050Z,14.40
2019-04-10T10:16:33.721Z,17.50
2019-04-10T10:19:02.678Z,17.63
2019-04-10T10:21:32.410Z,15.03
2019-04-10T10:24:02.351Z,16.17
2019-04-10T10:26:32.848Z,17.13
2019-04-10T10:29:02.701Z,19.10
2019-04-10T10:31:32.459Z,17.60
2019-04-10T10:34:01.895Z,19.30
2019-04-10T10:36:39.549Z,21.87
2019-04-10T10:39:06.901Z,14.30
2019-04-10T10:41:32.034Z,15.17
2019-04-10T10:44:00.891Z,17.70
2019-04-10T10:46:29.716Z,18.03
2019-04-10T10:48:58.453Z,16.53
2019-04-10T10:51:27.388Z,19.40
2019-04-10T10:53:56.694Z,19.17
2019-04-10T10:56:26.541Z,16.83
2019-04-10T10:58:57.814Z,20.17
2019-04-10T11:01:25.945Z,17.87
2019-04-10T11:03:54.778Z,14.37
2019-04-10T11:06:24.752Z,14.63
2019-04-10T11:08:53.807Z,15.27
2019-04-10T11:11:22.675Z,18.13
2019-04-10T11:13:51.741Z,17.33
2019-04-10T11:16:20.749Z,15.17
2019-04-10T11:18:50.806Z,14.40
2019-04-10T11:21:20.732Z,18.27
2019-04-10T11:23:50.670Z,22.37
2019-04-10T11:26:22.247Z,17.07
2019-04-10T11:28:50.323Z,17.23
2019-04-10T11:31:19.243Z,18.13
2019-04-10T11:36:20.159Z,15.57
2019-04-10T11:38:49.397Z,16.07
2019-04-10T11:41:19.366Z,19.50
2019-04-10T11:43:50.154Z,18.33
2019-04-10T11:46:20.094Z,20.67
2019-04-10T11:48:49.345Z,19.33
2019-04-10T11:51:18.525Z,18.30
2019-04-10T11:53:51.422Z,17.80
2019-04-10T11:56:19.261Z,14.63
2019-04-10T11:58:54.012Z,19.73
2019-04-10T12:01:21.619Z,17.20
2019-04-10T12:03:52.205Z,15.40
2019-04-10T12:06:21.180Z,17.50
2019-04-10T12:11:21.655Z,15.20
2019-04-10T12:13:50.638Z,15.70
2019-04-10T12:16:19.574Z,20.23
2019-04-10T12:18:48.878Z,20.90
2019-04-10T12:21:17.829Z,17.17
2019-04-10T12:23:47.342Z,13.90
2019-04-10T12:26:16.189Z,17.83
2019-04-10T12:28:45.084Z,16.67
2019-04-10T12:31:13.843Z,16.97
2019-04-10T12:33:42.807Z,16.10
2019-04-10T12:36:12.174Z,14.70
2019-04-10T12:38:41.577Z,16.33
2019-04-10T12:41:11.032Z,12.37
2019-04-10T12:43:40.990Z,18.43
2019-04-10T12:46:10.755Z,19.43
2019-04-10T12:48:40.961Z,15.70
2019-04-10T12:51:09.989Z,19.33
2019-04-10T12:53:38.711Z,17.13
2019-04-10T12:56:08.157Z,17.23
2019-04-10T12:58:37.185Z,17.37
2019-04-10T13:01:06.729Z,17.03
2019-04-10T13:03:35.617Z,15.60
2019-04-10T13:06:05.263Z,16.03
2019-04-10T13:08:51.454Z,19.60
2019-04-10T13:11:04.910Z,18.30
2019-04-10T13:13:33.941Z,21.23
2019-04-10T13:16:03.586Z,17.73
2019-04-10T13:18:32.438Z,18.90
2019-04-10T13:21:02.863Z,17.37
2019-04-10T13:23:32.956Z,17.27
2019-04-10T13:26:05.444Z,16.03
2019-04-10T13:28:32.335Z,15.03
2019-04-10T13:31:02.049Z,10.20
2019-04-10T13:33:31.010Z,17.93
2019-04-10T13:35:59.825Z,16.23
2019-04-10T13:38:32.380Z,14.33
2019-04-10T13:40:59.761Z,12.30
2019-04-10T13:43:29.689Z,14.53
2019-04-10T13:45:58.617Z,10.77
2019-04-10T13:48:27.366Z,32.60
2019-04-10T13:50:57.108Z,13.07
2019-04-10T13:53:26.066Z,12.57
2019-04-10T13:55:55.006Z,15.17
2019-04-10T13:58:26.146Z,12.27
2019-04-10T14:00:55.281Z,11.53
2019-04-10T14:03:24.310Z,12.63
2019-04-10T14:05:53.123Z,14.40
2019-04-10T14:08:35.999Z,15.43
2019-04-10T14:10:52.933Z,17.07
2019-04-10T14:13:22.027Z,15.07
2019-04-10T14:15:50.819Z,13.00
2019-04-10T14:18:19.648Z,15.47
2019-04-10T14:20:48.506Z,11.27
2019-04-10T14:23:18.151Z,14.03
2019-04-10T14:25:47.737Z,14.00
2019-04-10T14:28:17.404Z,15.00
2019-04-10T14:30:47.743Z,12.23
2019-04-10T14:33:16.727Z,14.67
2019-04-10T14:35:45.492Z,11.70
2019-04-10T14:38:14.880Z,11.77
2019-04-10T14:40:45.164Z,14.87
2019-04-10T14:43:14.697Z,10.03
2019-04-10T14:45:43.770Z,12.67
2019-04-10T14:48:12.637Z,10.73
2019-04-10T14:50:41.999Z,14.00
2019-04-10T14:53:11.673Z,13.23
2019-04-10T14:55:41.743Z,12.50
2019-04-10T14:58:20.521Z,10.93
2019-04-10T15:00:41.189Z,13.00
2019-04-10T15:03:09.994Z,14.97
2019-04-10T15:05:45.548Z,11.97
2019-04-10T15:08:09.696Z,13.23
2019-04-10T15:10:38.553Z,13.90
2019-04-10T15:13:12.241Z,10.73
2019-04-10T15:15:38.701Z,16.77
2019-04-10T15:18:08.767Z,12.73
2019-04-10T15:20:37.729Z,13.63
2019-04-10T15:23:07.759Z,9.03
2019-04-10T15:25:37.465Z,17.50
2019-04-10T15:28:06.530Z,14.97
2019-04-10T15:30:35.477Z,14.27
2019-04-10T15:33:04.559Z,7.83
2019-04-10T15:35:33.474Z,13.27
2019-04-10T15:38:02.239Z,11.37
2019-04-10T15:40:32.208Z,10.40
2019-04-10T15:43:01.217Z,11.47
2019-04-10T15:45:30.287Z,8.97
2019-04-10T15:48:00.501Z,9.73
2019-04-10T15:50:30.525Z,11.60
2019-04-10T15:52:59.949Z,12.20
2019-04-10T15:55:29.867Z,12.30
2019-04-10T15:58:01.241Z,9.33
2019-04-10T16:00:29.486Z,10.13
2019-04-10T16:02:58.288Z,13.67
2019-04-10T16:05:27.082Z,10.07
2019-04-10T16:07:56.044Z,10.60
2019-04-10T16:10:25.325Z,14.80
2019-04-10T16:12:55.403Z,14.60
2019-04-10T16:15:25.077Z,13.93
2019-04-10T16:17:54.707Z,11.47
2019-04-10T16:20:23.700Z,13.93
2019-04-10T16:22:53.079Z,9.43
2019-04-10T16:25:22.241Z,10.43
2019-04-10T16:27:51.101Z,12.10
2019-04-10T16:30:19.898Z,11.33
2019-04-10T16:32:48.728Z,11.40
2019-04-10T16:35:17.624Z,9.70
2019-04-10T16:37:47.476Z,12.23
2019-04-10T16:40:16.472Z,10.13
2019-04-10T16:42:45.325Z,9.50
2019-04-10T16:45:18.543Z,9.73
2019-04-10T16:47:48.290Z,9.67
2019-04-10T16:50:17.466Z,9.20
2019-04-10T16:52:47.373Z,8.03
2019-04-10T16:55:16.358Z,11.57
2019-04-10T16:57:45.414Z,11.70
2019-04-10T17:00:16.701Z,12.23
2019-04-10T17:02:46.416Z,12.87
2019-04-10T17:05:16.497Z,10.70
2019-04-10T17:07:45.501Z,9.80
2019-04-10T17:10:20.465Z,8.80
2019-04-10T17:12:46.237Z,11.00
2019-04-10T17:15:17.881Z,11.60
2019-04-10T17:17:46.783Z,10.60
2019-04-10T17:20:15.984Z,11.37
2019-04-10T17:22:48.568Z,13.97
2019-04-10T17:25:15.840Z,10.47
2019-04-10T17:27:45.875Z,11.67
2019-04-10T17:30:15.714Z,11.40
2019-04-10T17:32:44.753Z,10.77
2019-04-10T17:35:13.766Z,12.10
2019-04-10T17:37:42.592Z,11.60
2019-04-10T17:40:25.415Z,10.20
2019-04-10T17:42:42.571Z,12.10
2019-04-10T17:45:16.781Z,12.27
2019-04-10T17:47:45.744Z,9.60
2019-04-10T17:50:14.649Z,10.33
2019-04-10T17:52:44.999Z,12.93
2019-04-10T17:55:13.880Z,8.27
2019-04-10T17:57:44.609Z,11.43
2019-04-10T18:00:22.842Z,9.60
2019-04-10T18:02:51.912Z,10.97
2019-04-10T18:05:20.889Z,9.30
2019-04-10T18:07:49.714Z,9.83
2019-04-10T18:10:18.486Z,9.60
2019-04-10T18:12:48.102Z,10.03
2019-04-10T18:15:16.908Z,9.80
2019-04-10T18:17:47.080Z,9.87
2019-04-10T18:20:16.045Z,12.23
2019-04-10T18:22:44.989Z,8.57
2019-04-10T18:25:13.909Z,10.37
2019-04-10T18:27:42.930Z,9.87
2019-04-10T18:30:12.101Z,9.93
2019-04-10T18:32:42.086Z,12.77
2019-04-10T18:35:11.529Z,10.13
2019-04-10T18:37:41.213Z,10.80
2019-04-10T18:40:10.748Z,11.50
2019-04-10T18:42:39.895Z,9.87
2019-04-10T18:45:09.275Z,13.67
2019-04-10T18:47:39.367Z,9.03
2019-04-10T18:50:08.257Z,7.50
2019-04-10T18:52:37.366Z,10.53
2019-04-10T18:55:06.543Z,9.57
2019-04-10T18:57:43.622Z,11.40
2019-04-10T19:00:12.684Z,8.50
2019-04-10T19:02:43.155Z,8.50
2019-04-10T19:05:12.253Z,13.23
2019-04-10T19:07:40.890Z,10.90
2019-04-10T19:10:11.170Z,10.97
2019-04-10T19:12:40.892Z,11.23
2019-04-10T19:15:12.768Z,9.93
2019-04-10T19:17:48.878Z,10.67
2019-04-10T19:20:17.968Z,9.13
2019-04-10T19:22:46.509Z,9.77
2019-04-10T19:25:15.036Z,8.60
2019-04-10T19:27:44.489Z,7.63
2019-04-10T19:30:13.215Z,8.33
2019-04-10T19:32:42.059Z,11.90
2019-04-10T19:35:10.899Z,9.47
2019-04-10T19:37:40.736Z,9.93
2019-04-10T19:40:09.452Z,12.97
2019-04-10T19:42:37.819Z,10.83
2019-04-10T19:45:06.326Z,10.30
2019-04-10T19:47:34.781Z,9.33
2019-04-10T19:50:03.513Z,9.90
2019-04-10T19:52:32.838Z,8.77
2019-04-10T19:55:01.345Z,10.07
2019-04-10T19:57:31.017Z,8.90
2019-04-10T19:59:59.988Z,11.57
2019-04-10T20:02:28.414Z,9.90
2019-04-10T20:04:57.048Z,10.13
2019-04-10T20:07:25.538Z,8.50
2019-04-10T20:09:54.953Z,8.23
2019-04-10T20:12:24.499Z,11.03
2019-04-10T20:14:53.400Z,6.30
2019-04-10T20:17:21.976Z,8.23
2019-04-10T20:19:52.615Z,10.47
2019-04-10T20:22:20.914Z,10.07
2019-04-10T20:24:50.306Z,8.90
2019-04-10T20:27:20.221Z,9.07
2019-04-10T20:29:48.633Z,7.70
2019-04-10T20:32:17.655Z,8.73
2019-04-10T20:34:46.032Z,12.13
2019-04-10T20:37:14.524Z,10.43
2019-04-10T20:39:42.921Z,7.70
2019-04-10T20:42:11.223Z,7.13
2019-04-10T20:44:40.644Z,12.43
2019-04-10T20:47:09.219Z,8.93
2019-04-10T20:49:38.470Z,11.00
2019-04-10T20:52:08.272Z,9.07
2019-04-10T20:54:37.177Z,7.37
2019-04-10T20:57:06.509Z,10.00
2019-04-10T20:59:37.072Z,7.73
2019-04-10T21:02:06.270Z,8.50
2019-04-10T21:04:35.098Z,8.87
2019-04-10T21:07:04.934Z,8.23
2019-04-10T21:09:34.208Z,9.13
2019-04-10T21:12:09.574Z,6.13
2019-04-10T21:14:33.828Z,10.30
2019-04-10T21:17:02.670Z,8.70
2019-04-10T21:19:31.384Z,8.57
2019-04-10T21:22:00.193Z,8.10
2019-04-10T21:24:29.448Z,9.23
2019-04-10T21:26:59.079Z,7.50
2019-04-10T21:29:27.848Z,9.67
2019-04-10T21:31:56.849Z,8.53
2019-04-10T21:34:26.319Z,7.37
2019-04-10T21:36:55.086Z,8.63
2019-04-10T21:39:23.823Z,7.00
2019-04-10T21:41:53.534Z,9.13
2019-04-10T21:44:22.446Z,6.67
2019-04-10T21:46:55.020Z,9.00
2019-04-10T21:49:24.046Z,7.80
2019-04-10T21:51:53.700Z,10.87
2019-04-10T21:54:22.665Z,6.43
2019-04-10T21:56:51.552Z,10.03
2019-04-10T21:59:20.521Z,7.90
2019-04-10T22:01:49.429Z,10.07
2019-04-10T22:04:18.952Z,9.10
2019-04-10T22:06:47.924Z,9.97
2019-04-10T22:09:16.774Z,8.40
2019-04-10T22:11:45.673Z,9.33
2019-04-10T22:14:15.081Z,6.20
2019-04-10T22:16:44.358Z,7.43
2019-04-10T22:19:14.380Z,6.27
2019-04-10T22:21:44.058Z,5.00
2019-04-10T22:24:13.659Z,6.63
2019-04-10T22:26:42.504Z,10.90
2019-04-10T22:29:12.135Z,7.50
2019-04-10T22:31:41.616Z,7.00
2019-04-10T22:34:11.671Z,6.93
2019-04-10T22:36:41.470Z,6.33
2019-04-10T22:39:10.977Z,9.77
2019-04-10T22:41:40.690Z,8.30
2019-04-10T22:44:09.752Z,7.83
2019-04-10T22:46:38.575Z,12.20
2019-04-10T22:49:08.376Z,8.60
2019-04-10T22:51:37.676Z,7.63
2019-04-10T22:54:06.540Z,10.87
2019-04-10T22:56:35.816Z,10.83
2019-04-10T22:59:04.654Z,7.90
2019-04-10T23:01:33.466Z,8.77
2019-04-10T23:04:02.226Z,8.67
2019-04-10T23:06:31.344Z,10.53
2019-04-10T23:09:00.278Z,9.23
2019-04-10T23:11:35.133Z,11.33
2019-04-10T23:14:00.439Z,8.20
2019-04-10T23:16:30.348Z,7.37
2019-04-10T23:18:59.093Z,9.47
2019-04-10T23:21:28.294Z,10.43
2019-04-10T23:23:57.214Z,13.57
2019-04-10T23:26:26.060Z,10.07
2019-04-10T23:28:55.864Z,10.33
2019-04-10T23:31:25.689Z,13.73
2019-04-10T23:33:54.575Z,7.77
2019-04-10T23:36:24.643Z,13.23
2019-04-10T23:38:53.487Z,11.20
2019-04-10T23:41:23.253Z,11.30
2019-04-10T23:43:52.060Z,11.80
2019-04-10T23:46:20.779Z,8.17
2019-04-10T23:48:49.544Z,9.23
2019-04-10T23:51:18.996Z,9.87
2019-04-10T23:53:48.873Z,9.50
2019-04-10T23:56:17.829Z,15.37
2019-04-10T23:58:47.576Z,9.77
